Madisonville, Tennessee
Current Conditions -  °F | °C
As of 3:55 PM on Thursday 27 Nov 2014 (Local Time) from KMMI Reporting Station
Overcast Overcast  
Wind Chill: 30°   Ceiling: 4600
Heat Index: 37°   Visibility: 10mi
Dew Point: 25°   Wind: 10mph
Humidity: 60%   Direction: 320°NW
Pressure: 30.34"   Gusts: NA
Location:  35.52°N, 84.36°W
Report Text: KMMI 272055Z AUTO 32009KT 10SM BKN046 OVC049 03/M04 A3034 RMK
Loading
Personal Weather Stations






























Interactive Weather Map New forecast layout! Learn more

10-Day Weather Forecast

Advertisements
Track Severe Weather on mobile